Time;durP1;ratioP1;P1;durP2;ratioP2;P2;SDS_P1;SDS_P2;PMS_P1;PMS_P2;Temp;Humidity;BMP_temperature;BMP_pressure;BME280_temperature;BME280_humidity;BME280_pressure;Samples;Min_cycle;Max_cycle;Signal;HPM_P1;HPM_P2
2023/06/22 00:01:14;;;;;;;16.52;9.10;;;;;;;;;;5061970;28;20871;-38
2023/06/22 00:03:39;;;;;;;14.88;9.65;;;;;;;;;;5079400;28;20028;-38
2023/06/22 00:06:05;;;;;;;12.38;8.55;;;;;;;;;;5068270;28;20035;-38
2023/06/22 00:08:31;;;;;;;9.50;6.10;;;;;;;;;;5070430;28;20032;-36
2023/06/22 00:10:56;;;;;;;17.73;9.05;;;;;;;;;;5072211;28;20017;-36
2023/06/22 00:13:22;;;;;;;17.33;9.05;;;;;;;;;;5079935;28;20075;-35
2023/06/22 00:15:48;;;;;;;12.13;7.93;;;;;;;;;;5066299;28;20029;-37
2023/06/22 00:18:13;;;;;;;14.20;10.77;;;;;;;;;;5080385;28;20048;-36
2023/06/22 00:20:41;;;;;;;15.80;9.93;;;;;;;;;;5067342;28;20034;-36
2023/06/22 00:23:10;;;;;;;16.30;9.68;;;;;;;;;;5081321;28;20070;-36
2023/06/22 00:25:36;;;;;;;15.30;10.60;;;;;;;;;;5078434;28;20020;-36
2023/06/22 00:28:03;;;;;;;12.75;8.82;;;;;;;;;;5080952;28;20056;-36
2023/06/22 00:30:28;;;;;;;12.55;10.05;;;;;;;;;;5069292;28;20114;-38
2023/06/22 00:32:54;;;;;;;12.10;9.02;;;;;;;;;;5067911;28;20054;-37
2023/06/22 00:35:20;;;;;;;13.35;9.77;;;;;;;;;;5066151;28;20024;-36
2023/06/22 00:37:46;;;;;;;13.35;10.23;;;;;;;;;;5078667;28;20035;-36
2023/06/22 00:40:11;;;;;;;15.80;10.45;;;;;;;;;;5068230;28;20032;-35
2023/06/22 00:42:40;;;;;;;12.40;9.07;;;;;;;;;;5085316;28;20023;-37
2023/06/22 00:45:06;;;;;;;14.15;9.20;;;;;;;;;;5071579;28;20024;-36
2023/06/22 00:47:32;;;;;;;11.25;8.48;;;;;;;;;;5062887;28;20028;-36
2023/06/22 00:49:58;;;;;;;12.00;7.90;;;;;;;;;;5070608;28;20034;-36
2023/06/22 00:52:28;;;;;;;12.52;8.30;;;;;;;;;;5071957;28;20028;-36
2023/06/22 00:54:55;;;;;;;11.27;8.00;;;;;;;;;;5079149;28;20024;-35
2023/06/22 00:57:25;;;;;;;12.32;7.75;;;;;;;;;;5080272;28;20100;-36
2023/06/22 00:59:53;;;;;;;11.15;7.03;;;;;;;;;;5079922;28;20157;-36
2023/06/22 01:02:18;;;;;;;10.27;6.82;;;;;;;;;;5066498;28;20417;-38
2023/06/22 01:04:44;;;;;;;12.38;8.00;;;;;;;;;;5067512;28;20016;-37
2023/06/22 01:07:25;;;;;;;10.57;6.80;;;;;;;;;;5071316;28;20032;-36
2023/06/22 01:10:11;;;;;;;17.00;7.63;;;;;;;;;;5078293;28;20055;-36
2023/06/22 01:12:43;;;;;;;15.48;7.18;;;;;;;;;;5081531;28;20032;-36
2023/06/22 01:15:15;;;;;;;10.73;6.85;;;;;;;;;;5079592;28;20015;-36
2023/06/22 01:17:40;;;;;;;;;;;;;;;;;;5079995;28;20024;-36
2023/06/22 01:20:07;;;;;;;11.50;8.00;;;;;;;;;;5080117;28;19912;-35
2023/06/22 01:22:37;;;;;;;13.73;8.02;;;;;;;;;;5080593;28;20069;-36
2023/06/22 01:25:02;;;;;;;11.10;7.63;;;;;;;;;;5079700;28;20024;-36
2023/06/22 01:27:46;;;;;;;10.77;7.90;;;;;;;;;;5077338;28;20491;-37
2023/06/22 01:30:15;;;;;;;10.27;7.20;;;;;;;;;;5082804;28;20016;-36
2023/06/22 01:32:40;;;;;;;8.05;4.93;;;;;;;;;;5065144;28;20493;-37
2023/06/22 01:35:06;;;;;;;12.50;8.43;;;;;;;;;;5077321;28;20051;-36
2023/06/22 01:37:34;;;;;;;6.38;4.05;;;;;;;;;;5076430;28;20515;-36
2023/06/22 01:40:00;;;;;;;11.07;7.65;;;;;;;;;;5063963;28;20075;-35
2023/06/22 01:42:26;;;;;;;11.98;8.07;;;;;;;;;;5077734;28;20078;-36
2023/06/22 01:44:55;;;;;;;9.57;7.45;;;;;;;;;;5061408;28;20024;-36
2023/06/22 01:47:22;;;;;;;13.25;7.90;;;;;;;;;;5064023;28;20089;-36
2023/06/22 01:49:47;;;;;;;10.45;8.13;;;;;;;;;;5075803;28;20028;-36
2023/06/22 01:52:13;;;;;;;13.48;8.23;;;;;;;;;;5072994;28;20021;-36
2023/06/22 01:54:40;;;;;;;14.75;8.73;;;;;;;;;;5082591;28;20024;-37
2023/06/22 01:57:05;;;;;;;14.32;8.48;;;;;;;;;;5063836;28;20074;-37
2023/06/22 01:59:37;;;;;;;16.17;9.27;;;;;;;;;;5075910;28;20061;-37
2023/06/22 02:02:02;;;;;;;;;;;;;;;;;;5081390;28;20059;-37
2023/06/22 02:04:32;;;;;;;15.57;10.07;;;;;;;;;;5077284;28;19948;-39
2023/06/22 02:06:59;;;;;;;16.70;9.90;;;;;;;;;;5077228;28;20357;-37
2023/06/22 02:09:26;;;;;;;13.32;8.77;;;;;;;;;;5074791;28;20485;-37
2023/06/22 02:11:55;;;;;;;15.45;8.32;;;;;;;;;;5073842;28;20043;-37
2023/06/22 02:14:21;;;;;;;15.75;8.70;;;;;;;;;;5059782;28;20477;-38
2023/06/22 02:16:47;;;;;;;13.23;8.63;;;;;;;;;;5059491;28;20047;-37
2023/06/22 02:19:12;;;;;;;11.63;8.30;;;;;;;;;;5062883;28;20032;-36
2023/06/22 02:21:38;;;;;;;12.57;8.77;;;;;;;;;;5066062;28;20481;-36
2023/06/22 02:24:04;;;;;;;12.82;8.82;;;;;;;;;;5075526;28;20121;-37
2023/06/22 02:26:30;;;;;;;10.85;7.93;;;;;;;;;;5064719;28;20051;-37
2023/06/22 02:28:55;;;;;;;14.85;8.98;;;;;;;;;;5076507;28;20025;-37
2023/06/22 02:31:21;;;;;;;7.80;5.68;;;;;;;;;;5068044;28;20081;-37
2023/06/22 02:33:48;;;;;;;12.23;8.63;;;;;;;;;;5063653;28;20028;-38
2023/06/22 02:36:13;;;;;;;14.82;9.57;;;;;;;;;;5065534;28;20112;-37
2023/06/22 02:38:47;;;;;;;38.38;24.17;;;;;;;;;;5064863;28;20131;-37
2023/06/22 02:41:14;;;;;;;21.38;14.73;;;;;;;;;;5077302;28;20543;-37
2023/06/22 02:43:40;;;;;;;13.32;8.98;;;;;;;;;;5080716;28;20068;-37
2023/06/22 02:46:06;;;;;;;14.15;9.45;;;;;;;;;;5062470;28;20063;-37
2023/06/22 02:48:31;;;;;;;11.02;8.10;;;;;;;;;;5062762;28;20023;-37
2023/06/22 02:50:57;;;;;;;13.40;9.13;;;;;;;;;;5064376;28;20052;-39
2023/06/22 02:53:22;;;;;;;15.48;9.73;;;;;;;;;;5061330;28;20020;-37
2023/06/22 02:55:48;;;;;;;11.88;8.23;;;;;;;;;;5059144;28;20489;-37
2023/06/22 02:58:14;;;;;;;12.82;8.65;;;;;;;;;;5065520;28;20070;-37
2023/06/22 03:00:40;;;;;;;15.27;8.73;;;;;;;;;;5074502;28;20024;-37
2023/06/22 03:03:05;;;;;;;10.07;8.15;;;;;;;;;;5073466;28;20036;-38
2023/06/22 03:05:35;;;;;;;13.07;8.18;;;;;;;;;;5076617;28;20115;-38
2023/06/22 03:08:00;;;;;;;10.57;7.70;;;;;;;;;;5064201;28;20032;-37
2023/06/22 03:10:26;;;;;;;11.05;7.10;;;;;;;;;;5066223;28;20019;-37
2023/06/22 03:12:52;;;;;;;11.18;7.18;;;;;;;;;;5080134;28;20046;-37
2023/06/22 03:15:19;;;;;;;18.52;11.43;;;;;;;;;;5063775;28;20024;-37
2023/06/22 03:17:46;;;;;;;45.35;28.00;;;;;;;;;;5062619;28;20097;-37
2023/06/22 03:20:11;;;;;;;13.45;9.35;;;;;;;;;;5073353;28;20023;-37
2023/06/22 03:22:41;;;;;;;14.20;7.68;;;;;;;;;;5076183;28;20031;-39
2023/06/22 03:25:09;;;;;;;13.05;7.50;;;;;;;;;;5076972;28;20028;-37
2023/06/22 03:27:35;;;;;;;8.90;6.93;;;;;;;;;;5063445;28;20054;-36
2023/06/22 03:30:01;;;;;;;12.63;7.93;;;;;;;;;;5081161;28;20036;-37
2023/06/22 03:32:27;;;;;;;10.98;7.32;;;;;;;;;;5061409;28;20432;-37
2023/06/22 03:34:53;;;;;;;15.80;7.85;;;;;;;;;;5056933;28;20024;-38
2023/06/22 03:37:19;;;;;;;13.40;7.43;;;;;;;;;;5062964;28;20024;-37
2023/06/22 03:39:44;;;;;;;37.33;21.67;;;;;;;;;;5076077;28;20028;-37
2023/06/22 03:42:10;;;;;;;19.48;13.18;;;;;;;;;;5076860;28;20031;-37
2023/06/22 03:44:36;;;;;;;18.13;11.13;;;;;;;;;;5065508;28;20025;-37
2023/06/22 03:47:02;;;;;;;10.98;7.57;;;;;;;;;;5078951;28;20490;-38
2023/06/22 03:49:27;;;;;;;12.77;7.63;;;;;;;;;;5068698;28;20025;-38
2023/06/22 03:51:53;;;;;;;18.23;8.52;;;;;;;;;;5070365;28;20865;-37
2023/06/22 03:54:19;;;;;;;13.68;7.55;;;;;;;;;;5080872;28;20020;-37
2023/06/22 03:56:44;;;;;;;13.30;8.20;;;;;;;;;;5070001;28;20016;-37
2023/06/22 03:59:10;;;;;;;12.40;7.47;;;;;;;;;;5065315;28;20519;-36
2023/06/22 04:01:36;;;;;;;11.90;8.15;;;;;;;;;;5066946;28;20028;-36
2023/06/22 04:04:02;;;;;;;18.00;9.65;;;;;;;;;;5068162;28;20496;-37
2023/06/22 04:06:28;;;;;;;15.48;8.80;;;;;;;;;;5082786;28;20028;-36
2023/06/22 04:08:53;;;;;;;13.13;8.23;;;;;;;;;;5078842;28;20023;-37
2023/06/22 04:11:19;;;;;;;13.82;8.85;;;;;;;;;;5079834;28;20016;-37
2023/06/22 04:13:44;;;;;;;21.75;10.93;;;;;;;;;;5067186;28;20112;-37
2023/06/22 04:16:10;;;;;;;18.27;10.65;;;;;;;;;;5066394;28;20020;-37
2023/06/22 04:18:36;;;;;;;13.35;10.63;;;;;;;;;;5067115;28;20044;-36
2023/06/22 04:21:04;;;;;;;17.15;11.27;;;;;;;;;;5078806;28;20355;-37
2023/06/22 04:23:30;;;;;;;15.05;10.73;;;;;;;;;;5068357;28;20028;-37
2023/06/22 04:25:56;;;;;;;28.90;16.70;;;;;;;;;;5064977;28;20032;-37
2023/06/22 04:28:22;;;;;;;18.65;11.48;;;;;;;;;;5061685;28;20028;-37
2023/06/22 04:30:47;;;;;;;16.55;11.18;;;;;;;;;;5063767;28;20031;-37
2023/06/22 04:33:14;;;;;;;16.30;9.80;;;;;;;;;;5066735;28;20051;-37
2023/06/22 04:35:41;;;;;;;13.40;9.15;;;;;;;;;;5060170;28;20043;-37
2023/06/22 04:38:07;;;;;;;15.40;9.75;;;;;;;;;;5055613;28;23890;-37
2023/06/22 04:40:32;;;;;;;17.55;8.82;;;;;;;;;;5062491;28;20622;-36
2023/06/22 04:43:01;;;;;;;14.75;9.02;;;;;;;;;;5064642;28;20053;-37
2023/06/22 04:45:27;;;;;;;12.02;8.57;;;;;;;;;;5063217;28;20039;-37
2023/06/22 04:47:53;;;;;;;12.57;8.07;;;;;;;;;;5072707;28;20029;-37
2023/06/22 04:50:20;;;;;;;16.83;9.50;;;;;;;;;;5072108;28;20042;-38
2023/06/22 04:52:46;;;;;;;16.15;9.75;;;;;;;;;;5077802;28;20020;-37
2023/06/22 04:55:12;;;;;;;13.13;8.27;;;;;;;;;;5084000;28;20030;-37
2023/06/22 04:57:39;;;;;;;12.98;8.15;;;;;;;;;;5061905;28;20024;-36
2023/06/22 05:00:12;;;;;;;12.73;7.38;;;;;;;;;;5071815;28;20024;-37
2023/06/22 05:02:40;;;;;;;14.45;7.35;;;;;;;;;;5081045;28;20020;-36
2023/06/22 05:05:06;;;;;;;13.27;6.97;;;;;;;;;;5077447;28;20028;-37
2023/06/22 05:07:32;;;;;;;11.98;7.28;;;;;;;;;;5067316;28;20031;-36
2023/06/22 05:09:57;;;;;;;12.25;7.25;;;;;;;;;;5065941;28;20028;-37
2023/06/22 05:12:23;;;;;;;8.43;3.88;;;;;;;;;;5074903;28;20528;-37
2023/06/22 05:14:49;;;;;;;12.15;6.80;;;;;;;;;;5079046;28;20414;-37
2023/06/22 05:17:18;;;;;;;10.25;6.20;;;;;;;;;;5064571;28;20055;-37
2023/06/22 05:19:44;;;;;;;23.02;12.43;;;;;;;;;;5069479;28;20111;-37
2023/06/22 05:22:12;;;;;;;10.93;6.38;;;;;;;;;;5081198;28;20039;-37
2023/06/22 05:24:37;;;;;;;13.18;6.18;;;;;;;;;;5077456;28;20103;-37
2023/06/22 05:27:03;;;;;;;16.35;5.70;;;;;;;;;;5065399;28;20115;-38
2023/06/22 05:29:29;;;;;;;9.32;4.95;;;;;;;;;;5065162;28;20047;-38
2023/06/22 05:31:55;;;;;;;9.70;5.53;;;;;;;;;;5079622;28;20032;-37
2023/06/22 05:34:21;;;;;;;9.00;5.80;;;;;;;;;;5067549;28;20409;-37
2023/06/22 05:36:49;;;;;;;11.02;5.05;;;;;;;;;;5062245;28;20027;-37
2023/06/22 05:39:15;;;;;;;14.23;5.80;;;;;;;;;;5066864;28;20420;-37
2023/06/22 05:41:41;;;;;;;10.65;5.30;;;;;;;;;;5081056;28;20529;-37
2023/06/22 05:44:06;;;;;;;9.65;4.97;;;;;;;;;;5075209;28;20098;-37
2023/06/22 05:46:32;;;;;;;11.95;5.20;;;;;;;;;;5080194;28;20089;-37
2023/06/22 05:48:57;;;;;;;13.88;5.72;;;;;;;;;;5079739;28;20055;-38
2023/06/22 05:51:23;;;;;;;8.55;4.63;;;;;;;;;;5077636;28;20100;-37
2023/06/22 05:53:49;;;;;;;9.30;5.28;;;;;;;;;;5066294;28;20051;-37
2023/06/22 05:56:18;;;;;;;17.00;7.85;;;;;;;;;;5077999;28;20020;-37
2023/06/22 05:58:44;;;;;;;7.68;5.22;;;;;;;;;;5083677;28;20115;-37
2023/06/22 06:01:09;;;;;;;9.68;5.13;;;;;;;;;;5066765;28;20123;-37
2023/06/22 06:03:40;;;;;;;12.93;6.30;;;;;;;;;;5079114;28;20058;-37
2023/06/22 06:06:06;;;;;;;8.10;5.23;;;;;;;;;;5071844;28;20028;-38
2023/06/22 06:08:32;;;;;;;20.45;12.23;;;;;;;;;;5077815;28;20032;-38
2023/06/22 06:10:58;;;;;;;10.10;6.55;;;;;;;;;;5067512;28;20381;-37
2023/06/22 06:13:23;;;;;;;11.45;6.43;;;;;;;;;;5082653;28;20048;-37
2023/06/22 06:15:51;;;;;;;9.85;6.25;;;;;;;;;;5067645;28;20032;-38
2023/06/22 06:18:16;;;;;;;11.07;6.03;;;;;;;;;;5070273;28;20056;-37
2023/06/22 06:20:42;;;;;;;9.20;5.60;;;;;;;;;;5078233;28;21055;-37
2023/06/22 06:23:08;;;;;;;10.85;7.63;;;;;;;;;;5082031;28;20381;-38
2023/06/22 06:25:33;;;;;;;16.08;7.45;;;;;;;;;;5065659;28;20027;-40
2023/06/22 06:27:59;;;;;;;11.85;7.00;;;;;;;;;;5078435;28;21465;-38
2023/06/22 06:30:24;;;;;;;13.88;6.82;;;;;;;;;;5068455;28;20473;-37
2023/06/22 06:32:50;;;;;;;12.65;7.45;;;;;;;;;;5075776;28;20035;-39
2023/06/22 06:35:16;;;;;;;17.63;8.00;;;;;;;;;;5074518;28;20077;-38
2023/06/22 06:37:43;;;;;;;11.73;7.15;;;;;;;;;;5066153;28;20027;-37
2023/06/22 06:40:10;;;;;;;10.75;6.07;;;;;;;;;;5067061;28;20491;-38
2023/06/22 06:42:41;;;;;;;11.35;6.30;;;;;;;;;;5079151;28;20036;-37
2023/06/22 06:45:28;;;;;;;10.90;6.15;;;;;;;;;;5068012;28;20036;-36
2023/06/22 06:47:54;;;;;;;10.18;5.65;;;;;;;;;;5082540;28;21213;-39
2023/06/22 06:50:20;;;;;;;8.68;5.68;;;;;;;;;;5080292;28;20436;-39
2023/06/22 06:52:45;;;;;;;11.05;5.22;;;;;;;;;;5067676;28;20039;-38
2023/06/22 06:55:14;;;;;;;8.07;4.97;;;;;;;;;;5080565;28;20070;-39
2023/06/22 06:57:39;;;;;;;6.88;4.85;;;;;;;;;;5079064;28;20432;-38
2023/06/22 07:00:09;;;;;;;7.68;4.65;;;;;;;;;;5081752;28;20046;-38
2023/06/22 07:02:35;;;;;;;8.93;4.93;;;;;;;;;;5077425;28;20099;-39
2023/06/22 07:05:04;;;;;;;8.38;4.85;;;;;;;;;;5062968;28;20145;-39
2023/06/22 07:07:29;;;;;;;9.70;4.32;;;;;;;;;;5073698;28;20020;-39
2023/06/22 07:09:55;;;;;;;10.93;5.18;;;;;;;;;;5074875;28;20051;-38
2023/06/22 07:12:20;;;;;;;12.27;4.93;;;;;;;;;;5074993;28;20123;-38
2023/06/22 07:14:46;;;;;;;12.95;5.38;;;;;;;;;;5071445;28;20055;-38
2023/06/22 07:17:12;;;;;;;13.73;7.68;;;;;;;;;;5078552;28;20017;-39
2023/06/22 07:19:37;;;;;;;8.50;4.47;;;;;;;;;;5064405;28;20482;-40
2023/06/22 07:22:03;;;;;;;7.88;4.10;;;;;;;;;;5066067;28;20035;-38
2023/06/22 07:24:29;;;;;;;8.23;4.30;;;;;;;;;;5065557;28;20032;-37
2023/06/22 07:26:54;;;;;;;6.78;4.00;;;;;;;;;;5062703;28;20167;-37
2023/06/22 07:29:21;;;;;;;8.18;4.07;;;;;;;;;;5076182;28;20033;-36
2023/06/22 07:31:50;;;;;;;8.23;3.35;;;;;;;;;;5092740;28;20058;-36
2023/06/22 07:34:15;;;;;;;6.55;4.28;;;;;;;;;;5066866;28;20533;-35
2023/06/22 07:36:43;;;;;;;6.68;3.03;;;;;;;;;;5075523;28;20034;-36
2023/06/22 07:39:08;;;;;;;7.03;4.25;;;;;;;;;;5080135;28;20027;-36
2023/06/22 07:41:34;;;;;;;21.63;12.70;;;;;;;;;;5081081;28;20023;-36
2023/06/22 07:43:59;;;;;;;14.27;7.93;;;;;;;;;;5063377;28;20123;-36
2023/06/22 07:46:25;;;;;;;6.40;3.50;;;;;;;;;;5061110;28;20031;-36
2023/06/22 07:48:50;;;;;;;4.97;2.42;;;;;;;;;;5062340;28;20416;-36
2023/06/22 07:51:16;;;;;;;4.85;2.70;;;;;;;;;;5062604;28;20029;-37
2023/06/22 07:53:42;;;;;;;8.07;2.90;;;;;;;;;;5078251;28;20492;-36
2023/06/22 07:56:08;;;;;;;4.93;2.65;;;;;;;;;;5077545;28;20559;-36
2023/06/22 07:58:34;;;;;;;7.57;3.17;;;;;;;;;;5077763;28;20020;-38
2023/06/22 08:00:59;;;;;;;8.35;3.75;;;;;;;;;;5060482;28;20539;-38
2023/06/22 08:03:25;;;;;;;5.93;3.33;;;;;;;;;;5076867;28;20024;-36
2023/06/22 08:05:50;;;;;;;6.53;3.75;;;;;;;;;;5065429;28;20064;-36
2023/06/22 08:08:16;;;;;;;10.45;4.40;;;;;;;;;;5071801;28;20056;-36
2023/06/22 08:10:42;;;;;;;8.35;3.17;;;;;;;;;;5064297;28;20039;-37
2023/06/22 08:13:07;;;;;;;11.73;6.72;;;;;;;;;;5063238;28;20493;-36
2023/06/22 08:15:33;;;;;;;7.10;3.70;;;;;;;;;;5064451;28;20080;-36
2023/06/22 08:17:59;;;;;;;5.65;3.22;;;;;;;;;;5062997;28;20130;-38
2023/06/22 08:20:25;;;;;;;4.70;2.70;;;;;;;;;;5061187;28;20036;-36
2023/06/22 08:22:50;;;;;;;5.60;3.22;;;;;;;;;;5073716;28;20030;-36
2023/06/22 08:25:16;;;;;;;6.05;3.75;;;;;;;;;;5059104;28;20591;-36
2023/06/22 08:27:44;;;;;;;7.65;3.22;;;;;;;;;;5076522;28;20024;-37
2023/06/22 08:30:10;;;;;;;6.35;3.03;;;;;;;;;;5074821;28;20502;-36
2023/06/22 08:32:36;;;;;;;6.22;2.90;;;;;;;;;;5064567;28;20046;-36
2023/06/22 08:35:01;;;;;;;10.27;6.65;;;;;;;;;;5076003;28;20029;-36
2023/06/22 08:37:30;;;;;;;8.80;5.70;;;;;;;;;;5078385;28;20143;-36
2023/06/22 08:39:59;;;;;;;3.90;2.72;;;;;;;;;;5074497;28;20028;-36
2023/06/22 08:42:25;;;;;;;5.50;2.78;;;;;;;;;;5080655;28;20027;-36
2023/06/22 08:44:51;;;;;;;5.20;2.78;;;;;;;;;;5071915;28;20079;-38
2023/06/22 08:47:16;;;;;;;6.18;2.90;;;;;;;;;;5078190;28;20463;-37
2023/06/22 08:49:41;;;;;;;4.97;2.53;;;;;;;;;;5071161;28;20051;-38
2023/06/22 08:52:07;;;;;;;7.18;2.30;;;;;;;;;;5066006;28;20485;-36
2023/06/22 08:54:34;;;;;;;5.50;2.40;;;;;;;;;;5067287;28;20028;-37
2023/06/22 08:57:03;;;;;;;7.68;3.15;;;;;;;;;;5082658;28;20048;-37
2023/06/22 08:59:28;;;;;;;5.00;2.88;;;;;;;;;;5082399;28;20027;-37
2023/06/22 09:01:54;;;;;;;5.15;3.20;;;;;;;;;;5080126;28;20032;-37
2023/06/22 09:04:21;;;;;;;4.18;2.30;;;;;;;;;;5081528;28;20065;-37
2023/06/22 09:06:47;;;;;;;4.20;2.55;;;;;;;;;;5063319;28;20039;-36
2023/06/22 09:09:14;;;;;;;4.50;2.15;;;;;;;;;;5081734;28;20020;-37
2023/06/22 09:11:39;;;;;;;4.95;2.65;;;;;;;;;;5081329;28;20120;-39
2023/06/22 09:14:05;;;;;;;4.45;2.03;;;;;;;;;;5082882;28;20107;-37
2023/06/22 09:16:30;;;;;;;8.32;2.72;;;;;;;;;;5080436;28;20056;-39
2023/06/22 09:18:56;;;;;;;5.95;2.35;;;;;;;;;;5080808;28;20171;-37
2023/06/22 09:21:21;;;;;;;7.85;2.80;;;;;;;;;;5083549;28;20090;-37
2023/06/22 09:23:50;;;;;;;6.53;3.05;;;;;;;;;;5082050;28;20082;-36
2023/06/22 09:26:16;;;;;;;7.88;3.00;;;;;;;;;;5079469;28;20028;-37
2023/06/22 09:28:41;;;;;;;6.53;2.80;;;;;;;;;;5060476;28;20032;-37
2023/06/22 09:31:07;;;;;;;8.27;2.92;;;;;;;;;;5066096;28;20143;-37
2023/06/22 09:33:32;;;;;;;16.48;10.10;;;;;;;;;;5068302;28;20066;-37
2023/06/22 09:35:58;;;;;;;6.78;3.63;;;;;;;;;;5067021;28;20119;-37
2023/06/22 09:38:23;;;;;;;4.88;2.67;;;;;;;;;;5066390;28;20032;-38
2023/06/22 09:40:49;;;;;;;5.97;2.85;;;;;;;;;;5084205;28;20028;-37
2023/06/22 09:43:14;;;;;;;5.63;2.38;;;;;;;;;;5068180;28;20024;-37
2023/06/22 09:45:40;;;;;;;3.78;2.30;;;;;;;;;;5078496;28;20077;-36
2023/06/22 09:48:05;;;;;;;5.18;2.50;;;;;;;;;;5079249;28;20039;-37
2023/06/22 09:50:31;;;;;;;7.07;3.63;;;;;;;;;;5084610;28;20035;-37
2023/06/22 09:52:56;;;;;;;6.20;3.40;;;;;;;;;;5068843;28;20078;-37
2023/06/22 09:55:22;;;;;;;6.70;2.85;;;;;;;;;;5071751;28;20412;-37
2023/06/22 09:57:47;;;;;;;4.75;2.88;;;;;;;;;;5079499;28;20063;-37
2023/06/22 10:00:14;;;;;;;5.07;2.63;;;;;;;;;;5068397;28;20070;-37
2023/06/22 10:02:40;;;;;;;6.10;3.67;;;;;;;;;;5066334;28;20028;-37
2023/06/22 10:05:07;;;;;;;5.05;2.90;;;;;;;;;;5075288;28;20956;-37
2023/06/22 10:07:32;;;;;;;9.75;3.63;;;;;;;;;;5075255;28;20012;-39
2023/06/22 10:09:58;;;;;;;4.43;3.13;;;;;;;;;;5063134;28;20055;-37
2023/06/22 10:12:23;;;;;;;6.45;3.17;;;;;;;;;;5077851;28;20023;-37
2023/06/22 10:14:49;;;;;;;7.13;3.53;;;;;;;;;;5058663;28;20020;-38
2023/06/22 10:17:14;;;;;;;7.63;4.63;;;;;;;;;;5069967;28;20027;-37
2023/06/22 10:19:41;;;;;;;5.78;3.95;;;;;;;;;;5078730;28;20052;-37
2023/06/22 10:22:06;;;;;;;6.97;3.20;;;;;;;;;;5067856;28;20040;-38
2023/06/22 10:24:32;;;;;;;4.35;2.92;;;;;;;;;;5075673;28;20507;-37
2023/06/22 10:26:57;;;;;;;6.88;2.92;;;;;;;;;;5081923;28;20518;-37
2023/06/22 10:29:22;;;;;;;5.07;3.10;;;;;;;;;;5080089;28;20025;-37
2023/06/22 10:31:48;;;;;;;5.93;3.22;;;;;;;;;;5068959;28;20032;-37
2023/06/22 10:34:13;;;;;;;8.07;3.28;;;;;;;;;;5083742;28;20016;-36
2023/06/22 10:36:39;;;;;;;6.35;3.22;;;;;;;;;;5069382;28;20479;-37
2023/06/22 10:39:05;;;;;;;2.65;1.58;;;;;;;;;;5068027;28;20069;-37
2023/06/22 10:41:31;;;;;;;16.30;8.85;;;;;;;;;;5078392;28;20122;-38
2023/06/22 10:43:56;;;;;;;10.15;4.80;;;;;;;;;;5068068;28;20170;-38
2023/06/22 10:46:23;;;;;;;5.22;3.40;;;;;;;;;;5083659;28;20409;-39
2023/06/22 10:48:49;;;;;;;6.55;3.20;;;;;;;;;;5079916;28;20060;-36
2023/06/22 10:51:14;;;;;;;8.45;3.72;;;;;;;;;;5074884;28;20051;-38
2023/06/22 10:53:39;;;;;;;6.75;3.47;;;;;;;;;;5068608;28;20031;-37
2023/06/22 10:56:05;;;;;;;5.03;3.20;;;;;;;;;;5069584;28;20040;-39
2023/06/22 10:58:30;;;;;;;5.70;3.25;;;;;;;;;;5085247;28;20629;-38
2023/06/22 11:00:56;;;;;;;6.57;3.30;;;;;;;;;;5079106;28;20112;-38
2023/06/22 11:03:22;;;;;;;8.02;3.42;;;;;;;;;;5077976;28;20604;-37
2023/06/22 11:05:48;;;;;;;5.65;3.60;;;;;;;;;;5066122;28;20032;-37
2023/06/22 11:08:13;;;;;;;5.70;4.10;;;;;;;;;;5066027;28;20045;-37
2023/06/22 11:10:38;;;;;;;5.50;3.80;;;;;;;;;;5070015;28;20024;-38
2023/06/22 11:13:05;;;;;;;8.40;3.90;;;;;;;;;;5068527;28;20035;-37
2023/06/22 11:15:31;;;;;;;7.13;4.07;;;;;;;;;;5067988;28;20035;-38
2023/06/22 11:17:56;;;;;;;6.13;4.20;;;;;;;;;;5070048;28;20550;-37
2023/06/22 11:20:22;;;;;;;4.63;3.05;;;;;;;;;;5066112;28;20046;-39
2023/06/22 11:22:47;;;;;;;10.23;3.92;;;;;;;;;;5066301;28;20145;-37
2023/06/22 11:25:13;;;;;;;17.73;12.25;;;;;;;;;;5066411;28;20031;-37
2023/06/22 11:27:38;;;;;;;7.85;4.88;;;;;;;;;;5063949;28;20024;-37
2023/06/22 11:30:04;;;;;;;5.72;3.83;;;;;;;;;;5084071;28;20023;-38
2023/06/22 11:32:29;;;;;;;4.18;2.30;;;;;;;;;;5080431;28;20034;-38
2023/06/22 11:34:55;;;;;;;6.60;3.60;;;;;;;;;;5080074;28;20482;-38
2023/06/22 11:37:21;;;;;;;6.75;3.85;;;;;;;;;;5093549;28;20032;-37
2023/06/22 11:39:46;;;;;;;8.63;5.35;;;;;;;;;;5070446;28;20020;-38
2023/06/22 11:42:11;;;;;;;11.40;6.53;;;;;;;;;;5067641;28;20028;-37
2023/06/22 11:44:37;;;;;;;8.68;4.82;;;;;;;;;;5068140;28;20029;-37
2023/06/22 11:47:04;;;;;;;7.30;4.47;;;;;;;;;;5082133;28;20024;-38
2023/06/22 11:49:30;;;;;;;7.05;4.28;;;;;;;;;;5067198;28;20039;-37
2023/06/22 11:51:55;;;;;;;4.78;3.17;;;;;;;;;;5073777;28;20023;-37
2023/06/22 11:54:22;;;;;;;4.80;3.08;;;;;;;;;;5063809;28;20028;-38
2023/06/22 11:56:48;;;;;;;6.13;3.95;;;;;;;;;;5066886;28;20072;-37
2023/06/22 11:59:13;;;;;;;5.60;3.80;;;;;;;;;;5072889;28;20016;-37
2023/06/22 12:01:39;;;;;;;7.75;3.38;;;;;;;;;;5060836;28;20032;-37
2023/06/22 12:04:05;;;;;;;11.20;5.28;;;;;;;;;;5079480;28;20114;-37
2023/06/22 12:06:37;;;;;;;7.97;3.97;;;;;;;;;;5069895;28;20085;-37
2023/06/22 12:09:04;;;;;;;7.72;4.07;;;;;;;;;;5084014;28;20020;-37
2023/06/22 12:11:29;;;;;;;6.05;3.72;;;;;;;;;;5065309;28;20024;-38
2023/06/22 12:13:55;;;;;;;5.93;3.30;;;;;;;;;;5080913;28;20028;-36
2023/06/22 12:16:21;;;;;;;6.90;3.70;;;;;;;;;;5071216;28;20024;-37
2023/06/22 12:18:47;;;;;;;4.90;2.75;;;;;;;;;;5071076;28;20035;-37
2023/06/22 12:21:12;;;;;;;7.88;3.35;;;;;;;;;;5083400;28;20024;-37
2023/06/22 12:23:37;;;;;;;5.93;3.45;;;;;;;;;;5082022;28;20035;-37
2023/06/22 12:26:03;;;;;;;9.85;4.03;;;;;;;;;;5067830;28;20031;-38
2023/06/22 12:28:28;;;;;;;19.43;11.40;;;;;;;;;;5080012;28;20025;-37
2023/06/22 12:30:54;;;;;;;8.75;4.32;;;;;;;;;;5071250;28;20262;-37
2023/06/22 12:33:19;;;;;;;6.23;3.50;;;;;;;;;;5077027;28;20067;-37
2023/06/22 12:35:45;;;;;;;5.70;3.42;;;;;;;;;;5086577;28;20274;-37
2023/06/22 12:38:11;;;;;;;3.25;2.33;;;;;;;;;;5087819;28;20028;-38
2023/06/22 12:40:38;;;;;;;5.57;3.38;;;;;;;;;;5065508;28;20024;-37
2023/06/22 12:43:04;;;;;;;4.82;3.22;;;;;;;;;;5087832;28;20028;-37
2023/06/22 12:45:33;;;;;;;9.38;3.60;;;;;;;;;;5068979;28;20069;-39
2023/06/22 12:47:59;;;;;;;7.03;3.40;;;;;;;;;;5085832;28;20028;-37
2023/06/22 12:50:24;;;;;;;5.03;3.60;;;;;;;;;;5086912;28;20016;-37
2023/06/22 12:52:50;;;;;;;7.03;3.88;;;;;;;;;;5086102;28;20039;-37
2023/06/22 12:55:15;;;;;;;8.38;3.67;;;;;;;;;;5069265;28;20032;-37
2023/06/22 12:57:41;;;;;;;7.50;4.28;;;;;;;;;;5084110;28;20026;-36
2023/06/22 13:00:08;;;;;;;6.68;3.60;;;;;;;;;;5067127;28;20107;-37
2023/06/22 13:02:33;;;;;;;7.43;3.85;;;;;;;;;;5069628;28;20577;-37
2023/06/22 13:04:59;;;;;;;6.65;3.60;;;;;;;;;;5085644;28;20108;-37
2023/06/22 13:07:24;;;;;;;5.13;2.90;;;;;;;;;;5075353;28;20028;-38
2023/06/22 13:09:53;;;;;;;6.70;3.75;;;;;;;;;;5065712;28;20512;-38
2023/06/22 13:12:20;;;;;;;9.43;4.30;;;;;;;;;;5082535;28;20499;-37
2023/06/22 13:14:46;;;;;;;6.95;3.97;;;;;;;;;;5065932;28;20023;-37
2023/06/22 13:17:12;;;;;;;5.57;3.42;;;;;;;;;;5059746;28;20472;-37
2023/06/22 13:19:37;;;;;;;14.45;9.10;;;;;;;;;;5076519;28;20749;-37
2023/06/22 13:22:03;;;;;;;6.22;4.70;;;;;;;;;;5068586;28;20039;-37
2023/06/22 13:24:29;;;;;;;5.13;3.80;;;;;;;;;;5092690;28;20418;-37
2023/06/22 13:30:52;;;;;;;6.70;3.38;;;;;;;30.66;35.93;101678.84;5120088;27;20800;-37
2023/06/22 13:33:18;;;;;;;6.63;3.58;;;;;;;30.69;35.97;101665.69;5069950;27;20043;-37
2023/06/22 13:35:43;;;;;;;4.22;3.30;;;;;;;30.81;35.64;101673.28;5126004;27;20032;-37
2023/06/22 13:38:14;;;;;;;13.75;4.18;;;;;;;31.00;35.28;101671.72;5084784;28;20027;-37
2023/06/22 13:40:40;;;;;;;6.85;4.18;;;;;;;31.06;35.53;101670.06;5104900;28;20412;-37
2023/06/22 13:43:05;;;;;;;6.72;3.85;;;;;;;31.19;34.96;101663.84;5070895;28;20050;-37
2023/06/22 13:45:31;;;;;;;5.00;4.05;;;;;;;31.37;35.03;101657.84;5102648;28;20023;-39
2023/06/22 13:47:57;;;;;;;6.43;4.13;;;;;;;31.48;34.55;101657.22;5085153;28;20031;-37
2023/06/22 13:50:22;;;;;;;6.53;4.25;;;;;;;31.66;34.38;101648.47;5080734;28;20049;-35
2023/06/22 13:52:48;;;;;;;5.80;4.35;;;;;;;32.16;34.23;101650.78;5084996;28;20567;-35
2023/06/22 13:55:16;;;;;;;5.40;3.65;;;;;;;32.53;33.82;101650.31;5083975;28;20036;-37
2023/06/22 13:57:42;;;;;;;6.60;4.25;;;;;;;32.85;33.29;101645.00;5069457;28;20019;-38
2023/06/22 14:00:08;;;;;;;7.75;5.60;;;;;;;33.05;32.81;101647.63;5096478;28;20048;-37
2023/06/22 14:02:34;;;;;;;5.75;4.47;;;;;;;33.25;32.37;101639.38;5101111;28;20035;-36
2023/06/22 14:05:00;;;;;;;6.25;4.75;;;;;;;33.46;31.81;101644.72;5084915;28;20023;-36
2023/06/22 14:07:25;;;;;;;11.45;4.03;;;;;;;33.56;31.66;101645.06;5083468;28;20119;-36
2023/06/22 14:09:51;;;;;;;4.70;3.08;;;;;;;33.70;31.81;101643.06;5087625;28;20047;-36
2023/06/22 14:12:19;;;;;;;5.35;3.03;;;;;;;33.87;31.39;101636.00;5105961;28;20404;-35
2023/06/22 14:14:45;;;;;;;4.70;3.83;;;;;;;33.94;31.31;101635.13;5104920;28;20031;-37
2023/06/22 14:17:11;;;;;;;5.38;3.72;;;;;;;34.10;30.89;101633.72;5102300;28;20069;-36
2023/06/22 14:19:36;;;;;;;4.85;3.85;;;;;;;34.19;30.56;101632.38;5083216;28;20027;-36